sensor_id;sensor_type;location;lat;lon;timestamp;P1;durP1;ratioP1;P2;durP2;ratioP2
611;SDS011;293;53.888;11.464;2022-07-29T00:01:46;4.87;;;3.63;;
611;SDS011;293;53.888;11.464;2022-07-29T00:04:15;4.27;;;3.87;;
611;SDS011;293;53.888;11.464;2022-07-29T00:06:42;8.57;;;3.77;;
611;SDS011;293;53.888;11.464;2022-07-29T00:09:09;3.60;;;3.07;;
611;SDS011;293;53.888;11.464;2022-07-29T00:11:36;5.33;;;3.90;;
611;SDS011;293;53.888;11.464;2022-07-29T00:14:03;6.70;;;4.37;;
611;SDS011;293;53.888;11.464;2022-07-29T00:16:30;5.20;;;3.70;;
611;SDS011;293;53.888;11.464;2022-07-29T00:18:57;5.40;;;3.80;;
611;SDS011;293;53.888;11.464;2022-07-29T00:21:25;4.60;;;3.50;;
611;SDS011;293;53.888;11.464;2022-07-29T00:23:52;5.20;;;4.00;;
611;SDS011;293;53.888;11.464;2022-07-29T00:26:19;6.70;;;4.33;;
611;SDS011;293;53.888;11.464;2022-07-29T00:28:45;5.60;;;4.30;;
611;SDS011;293;53.888;11.464;2022-07-29T00:31:12;3.97;;;3.67;;
611;SDS011;293;53.888;11.464;2022-07-29T00:33:39;6.03;;;4.30;;
611;SDS011;293;53.888;11.464;2022-07-29T00:36:06;4.47;;;3.67;;
611;SDS011;293;53.888;11.464;2022-07-29T00:38:33;5.70;;;4.17;;
611;SDS011;293;53.888;11.464;2022-07-29T00:41:00;5.70;;;4.07;;
611;SDS011;293;53.888;11.464;2022-07-29T00:43:27;4.53;;;3.70;;
611;SDS011;293;53.888;11.464;2022-07-29T00:45:54;4.20;;;3.73;;
611;SDS011;293;53.888;11.464;2022-07-29T00:48:20;4.27;;;3.80;;
611;SDS011;293;53.888;11.464;2022-07-29T00:50:47;4.73;;;4.17;;
611;SDS011;293;53.888;11.464;2022-07-29T00:53:16;5.70;;;3.63;;
611;SDS011;293;53.888;11.464;2022-07-29T00:55:44;7.37;;;4.50;;
611;SDS011;293;53.888;11.464;2022-07-29T00:58:11;6.00;;;3.80;;
611;SDS011;293;53.888;11.464;2022-07-29T01:00:39;6.13;;;3.93;;
611;SDS011;293;53.888;11.464;2022-07-29T01:03:06;4.90;;;4.50;;
611;SDS011;293;53.888;11.464;2022-07-29T01:05:33;5.43;;;3.50;;
611;SDS011;293;53.888;11.464;2022-07-29T01:08:01;6.53;;;4.00;;
611;SDS011;293;53.888;11.464;2022-07-29T01:10:28;8.63;;;4.73;;
611;SDS011;293;53.888;11.464;2022-07-29T01:12:58;6.13;;;4.13;;
611;SDS011;293;53.888;11.464;2022-07-29T01:15:27;6.50;;;4.60;;
611;SDS011;293;53.888;11.464;2022-07-29T01:17:57;6.47;;;3.73;;
611;SDS011;293;53.888;11.464;2022-07-29T01:20:31;5.20;;;4.67;;
611;SDS011;293;53.888;11.464;2022-07-29T01:23:21;6.20;;;4.57;;
611;SDS011;293;53.888;11.464;2022-07-29T01:26:27;9.17;;;4.33;;
611;SDS011;293;53.888;11.464;2022-07-29T01:29:23;6.50;;;4.47;;
611;SDS011;293;53.888;11.464;2022-07-29T01:31:56;4.33;;;3.90;;
611;SDS011;293;53.888;11.464;2022-07-29T01:34:27;7.47;;;3.83;;
611;SDS011;293;53.888;11.464;2022-07-29T01:37:00;3.90;;;3.60;;
611;SDS011;293;53.888;11.464;2022-07-29T01:39:31;4.40;;;3.93;;
611;SDS011;293;53.888;11.464;2022-07-29T01:42:02;5.00;;;4.50;;
611;SDS011;293;53.888;11.464;2022-07-29T01:44:39;5.70;;;3.73;;
611;SDS011;293;53.888;11.464;2022-07-29T01:47:12;6.83;;;4.10;;
611;SDS011;293;53.888;11.464;2022-07-29T01:49:46;5.50;;;4.03;;
611;SDS011;293;53.888;11.464;2022-07-29T01:52:19;5.70;;;4.03;;
611;SDS011;293;53.888;11.464;2022-07-29T01:54:51;4.70;;;4.40;;
611;SDS011;293;53.888;11.464;2022-07-29T01:57:21;4.60;;;4.00;;
611;SDS011;293;53.888;11.464;2022-07-29T01:59:55;4.80;;;4.30;;
611;SDS011;293;53.888;11.464;2022-07-29T02:02:24;8.67;;;5.20;;
611;SDS011;293;53.888;11.464;2022-07-29T02:04:54;8.03;;;4.50;;
611;SDS011;293;53.888;11.464;2022-07-29T02:07:22;4.00;;;3.40;;
611;SDS011;293;53.888;11.464;2022-07-29T02:09:53;4.37;;;3.97;;
611;SDS011;293;53.888;11.464;2022-07-29T02:12:22;7.37;;;4.40;;
611;SDS011;293;53.888;11.464;2022-07-29T02:14:52;6.60;;;4.37;;
611;SDS011;293;53.888;11.464;2022-07-29T02:17:23;5.43;;;3.90;;
611;SDS011;293;53.888;11.464;2022-07-29T02:19:53;5.30;;;3.77;;
611;SDS011;293;53.888;11.464;2022-07-29T02:22:25;4.67;;;4.00;;
611;SDS011;293;53.888;11.464;2022-07-29T02:24:54;4.80;;;4.30;;
611;SDS011;293;53.888;11.464;2022-07-29T02:27:22;4.70;;;4.23;;
611;SDS011;293;53.888;11.464;2022-07-29T02:29:49;10.50;;;4.80;;
611;SDS011;293;53.888;11.464;2022-07-29T02:32:18;4.53;;;3.53;;
611;SDS011;293;53.888;11.464;2022-07-29T02:34:47;6.73;;;5.33;;
611;SDS011;293;53.888;11.464;2022-07-29T02:37:16;9.73;;;3.90;;
611;SDS011;293;53.888;11.464;2022-07-29T02:39:45;4.13;;;3.73;;
611;SDS011;293;53.888;11.464;2022-07-29T02:42:15;4.40;;;3.70;;
611;SDS011;293;53.888;11.464;2022-07-29T02:44:43;7.07;;;4.67;;
611;SDS011;293;53.888;11.464;2022-07-29T02:47:11;4.60;;;4.10;;
611;SDS011;293;53.888;11.464;2022-07-29T02:49:47;9.20;;;4.00;;
611;SDS011;293;53.888;11.464;2022-07-29T02:52:20;5.83;;;3.70;;
611;SDS011;293;53.888;11.464;2022-07-29T02:54:53;7.03;;;3.77;;
611;SDS011;293;53.888;11.464;2022-07-29T02:57:30;4.80;;;3.70;;
611;SDS011;293;53.888;11.464;2022-07-29T03:00:01;5.23;;;3.80;;
611;SDS011;293;53.888;11.464;2022-07-29T03:02:31;10.37;;;3.70;;
611;SDS011;293;53.888;11.464;2022-07-29T03:05:03;5.93;;;3.77;;
611;SDS011;293;53.888;11.464;2022-07-29T03:07:31;9.80;;;4.40;;
611;SDS011;293;53.888;11.464;2022-07-29T03:10:00;6.23;;;3.60;;
611;SDS011;293;53.888;11.464;2022-07-29T03:12:29;6.73;;;4.60;;
611;SDS011;293;53.888;11.464;2022-07-29T03:14:57;4.67;;;3.60;;
611;SDS011;293;53.888;11.464;2022-07-29T03:17:26;6.13;;;4.53;;
611;SDS011;293;53.888;11.464;2022-07-29T03:19:54;6.07;;;3.93;;
611;SDS011;293;53.888;11.464;2022-07-29T03:22:22;4.70;;;3.60;;
611;SDS011;293;53.888;11.464;2022-07-29T03:24:49;4.07;;;3.60;;
611;SDS011;293;53.888;11.464;2022-07-29T03:27:16;5.33;;;4.33;;
611;SDS011;293;53.888;11.464;2022-07-29T03:29:43;7.87;;;4.27;;
611;SDS011;293;53.888;11.464;2022-07-29T03:32:10;5.80;;;4.80;;
611;SDS011;293;53.888;11.464;2022-07-29T03:34:37;5.50;;;3.70;;
611;SDS011;293;53.888;11.464;2022-07-29T03:37:04;7.33;;;4.90;;
611;SDS011;293;53.888;11.464;2022-07-29T03:39:35;5.10;;;4.30;;
611;SDS011;293;53.888;11.464;2022-07-29T03:42:06;4.07;;;3.70;;
611;SDS011;293;53.888;11.464;2022-07-29T03:44:37;5.67;;;3.70;;
611;SDS011;293;53.888;11.464;2022-07-29T03:47:05;4.17;;;3.30;;
611;SDS011;293;53.888;11.464;2022-07-29T03:49:34;5.00;;;4.00;;
611;SDS011;293;53.888;11.464;2022-07-29T03:52:04;5.67;;;4.07;;
611;SDS011;293;53.888;11.464;2022-07-29T03:54:31;5.23;;;4.00;;
611;SDS011;293;53.888;11.464;2022-07-29T03:56:59;10.00;;;4.77;;
611;SDS011;293;53.888;11.464;2022-07-29T03:59:31;6.17;;;4.13;;
611;SDS011;293;53.888;11.464;2022-07-29T04:01:59;3.47;;;3.17;;
611;SDS011;293;53.888;11.464;2022-07-29T04:04:28;4.00;;;3.60;;
611;SDS011;293;53.888;11.464;2022-07-29T04:06:55;5.90;;;4.13;;
611;SDS011;293;53.888;11.464;2022-07-29T04:09:22;5.70;;;3.47;;
611;SDS011;293;53.888;11.464;2022-07-29T04:11:48;5.43;;;3.20;;
611;SDS011;293;53.888;11.464;2022-07-29T04:14:17;3.80;;;3.13;;
611;SDS011;293;53.888;11.464;2022-07-29T04:16:44;5.37;;;3.40;;
611;SDS011;293;53.888;11.464;2022-07-29T04:19:11;3.93;;;3.60;;
611;SDS011;293;53.888;11.464;2022-07-29T04:21:38;4.60;;;2.97;;
611;SDS011;293;53.888;11.464;2022-07-29T04:24:05;5.33;;;3.30;;
611;SDS011;293;53.888;11.464;2022-07-29T04:26:33;4.70;;;3.67;;
611;SDS011;293;53.888;11.464;2022-07-29T04:29:00;4.00;;;3.70;;
611;SDS011;293;53.888;11.464;2022-07-29T04:31:29;3.33;;;3.03;;
611;SDS011;293;53.888;11.464;2022-07-29T04:33:55;5.03;;;4.30;;
611;SDS011;293;53.888;11.464;2022-07-29T04:36:22;4.90;;;3.40;;
611;SDS011;293;53.888;11.464;2022-07-29T04:38:49;4.97;;;3.37;;
611;SDS011;293;53.888;11.464;2022-07-29T04:41:16;4.13;;;3.60;;
611;SDS011;293;53.888;11.464;2022-07-29T04:43:43;4.17;;;3.20;;
611;SDS011;293;53.888;11.464;2022-07-29T04:46:10;4.83;;;3.20;;
611;SDS011;293;53.888;11.464;2022-07-29T04:48:38;3.47;;;3.00;;
611;SDS011;293;53.888;11.464;2022-07-29T04:51:05;7.23;;;3.90;;
611;SDS011;293;53.888;11.464;2022-07-29T04:53:32;4.73;;;3.70;;
611;SDS011;293;53.888;11.464;2022-07-29T04:55:58;5.10;;;3.07;;
611;SDS011;293;53.888;11.464;2022-07-29T04:58:26;4.20;;;3.07;;
611;SDS011;293;53.888;11.464;2022-07-29T05:00:53;6.60;;;3.20;;
611;SDS011;293;53.888;11.464;2022-07-29T05:03:20;3.97;;;3.57;;
611;SDS011;293;53.888;11.464;2022-07-29T05:05:48;4.50;;;3.50;;
611;SDS011;293;53.888;11.464;2022-07-29T05:08:15;4.10;;;3.70;;
611;SDS011;293;53.888;11.464;2022-07-29T05:10:41;4.00;;;3.40;;
611;SDS011;293;53.888;11.464;2022-07-29T05:13:08;5.80;;;2.90;;
611;SDS011;293;53.888;11.464;2022-07-29T05:15:35;6.20;;;3.00;;
611;SDS011;293;53.888;11.464;2022-07-29T05:18:03;4.27;;;3.70;;
611;SDS011;293;53.888;11.464;2022-07-29T05:20:30;6.57;;;3.27;;
611;SDS011;293;53.888;11.464;2022-07-29T05:23:00;5.73;;;3.10;;
611;SDS011;293;53.888;11.464;2022-07-29T05:25:28;4.97;;;2.90;;
611;SDS011;293;53.888;11.464;2022-07-29T05:27:56;4.10;;;3.50;;
611;SDS011;293;53.888;11.464;2022-07-29T05:30:23;4.60;;;3.50;;
611;SDS011;293;53.888;11.464;2022-07-29T05:32:50;4.93;;;3.47;;
611;SDS011;293;53.888;11.464;2022-07-29T05:35:17;3.77;;;3.27;;
611;SDS011;293;53.888;11.464;2022-07-29T05:37:44;4.27;;;3.50;;
611;SDS011;293;53.888;11.464;2022-07-29T05:40:12;4.70;;;2.53;;
611;SDS011;293;53.888;11.464;2022-07-29T05:42:39;5.07;;;3.23;;
611;SDS011;293;53.888;11.464;2022-07-29T05:45:06;4.00;;;2.70;;
611;SDS011;293;53.888;11.464;2022-07-29T05:47:33;4.70;;;2.67;;
611;SDS011;293;53.888;11.464;2022-07-29T05:50:00;4.30;;;2.27;;
611;SDS011;293;53.888;11.464;2022-07-29T05:52:27;3.77;;;2.23;;
611;SDS011;293;53.888;11.464;2022-07-29T05:54:53;5.20;;;3.40;;
611;SDS011;293;53.888;11.464;2022-07-29T05:57:23;4.70;;;2.50;;
611;SDS011;293;53.888;11.464;2022-07-29T05:59:50;3.90;;;2.40;;
611;SDS011;293;53.888;11.464;2022-07-29T06:02:17;3.93;;;1.90;;
611;SDS011;293;53.888;11.464;2022-07-29T06:04:44;3.37;;;1.80;;
611;SDS011;293;53.888;11.464;2022-07-29T06:07:11;2.63;;;1.77;;
611;SDS011;293;53.888;11.464;2022-07-29T06:09:38;6.07;;;2.20;;
611;SDS011;293;53.888;11.464;2022-07-29T06:12:05;4.37;;;2.20;;
611;SDS011;293;53.888;11.464;2022-07-29T06:17:03;2.80;;;1.80;;
611;SDS011;293;53.888;11.464;2022-07-29T06:19:30;2.70;;;1.60;;
611;SDS011;293;53.888;11.464;2022-07-29T06:21:59;2.37;;;1.40;;
611;SDS011;293;53.888;11.464;2022-07-29T06:24:26;2.17;;;1.70;;
611;SDS011;293;53.888;11.464;2022-07-29T06:26:53;4.43;;;1.50;;
611;SDS011;293;53.888;11.464;2022-07-29T06:29:20;1.73;;;1.30;;
611;SDS011;293;53.888;11.464;2022-07-29T06:31:48;6.03;;;1.80;;
611;SDS011;293;53.888;11.464;2022-07-29T06:34:15;3.20;;;1.20;;
611;SDS011;293;53.888;11.464;2022-07-29T06:36:42;2.63;;;1.60;;
611;SDS011;293;53.888;11.464;2022-07-29T06:39:08;2.13;;;1.70;;
611;SDS011;293;53.888;11.464;2022-07-29T06:41:35;3.53;;;1.93;;
611;SDS011;293;53.888;11.464;2022-07-29T06:44:02;2.60;;;1.67;;
611;SDS011;293;53.888;11.464;2022-07-29T06:46:30;2.47;;;1.83;;
611;SDS011;293;53.888;11.464;2022-07-29T06:48:58;3.70;;;1.80;;
611;SDS011;293;53.888;11.464;2022-07-29T06:51:27;2.33;;;1.70;;
611;SDS011;293;53.888;11.464;2022-07-29T06:53:54;4.53;;;1.70;;
611;SDS011;293;53.888;11.464;2022-07-29T06:56:22;1.60;;;1.20;;
611;SDS011;293;53.888;11.464;2022-07-29T06:58:49;5.77;;;1.80;;
611;SDS011;293;53.888;11.464;2022-07-29T07:01:16;4.23;;;1.73;;
611;SDS011;293;53.888;11.464;2022-07-29T07:03:42;3.73;;;1.93;;
611;SDS011;293;53.888;11.464;2022-07-29T07:06:11;2.13;;;1.30;;
611;SDS011;293;53.888;11.464;2022-07-29T07:08:37;2.30;;;2.10;;
611;SDS011;293;53.888;11.464;2022-07-29T07:11:04;3.60;;;1.83;;
611;SDS011;293;53.888;11.464;2022-07-29T07:13:32;2.80;;;1.80;;
611;SDS011;293;53.888;11.464;2022-07-29T07:15:59;4.13;;;2.23;;
611;SDS011;293;53.888;11.464;2022-07-29T07:18:26;8.37;;;1.83;;
611;SDS011;293;53.888;11.464;2022-07-29T07:20:54;4.60;;;1.73;;
611;SDS011;293;53.888;11.464;2022-07-29T07:23:22;2.57;;;1.50;;
611;SDS011;293;53.888;11.464;2022-07-29T07:25:49;4.50;;;3.13;;
611;SDS011;293;53.888;11.464;2022-07-29T07:28:17;3.57;;;2.10;;
611;SDS011;293;53.888;11.464;2022-07-29T07:30:44;4.20;;;3.67;;
611;SDS011;293;53.888;11.464;2022-07-29T07:33:11;6.40;;;1.70;;
611;SDS011;293;53.888;11.464;2022-07-29T07:35:38;12.47;;;1.90;;
611;SDS011;293;53.888;11.464;2022-07-29T07:38:05;4.80;;;1.90;;
611;SDS011;293;53.888;11.464;2022-07-29T07:40:33;3.90;;;1.70;;
611;SDS011;293;53.888;11.464;2022-07-29T07:43:00;3.33;;;1.40;;
611;SDS011;293;53.888;11.464;2022-07-29T07:45:27;4.40;;;1.67;;
611;SDS011;293;53.888;11.464;2022-07-29T07:47:54;3.27;;;1.60;;
611;SDS011;293;53.888;11.464;2022-07-29T07:50:21;2.37;;;1.60;;
611;SDS011;293;53.888;11.464;2022-07-29T07:52:49;2.20;;;1.37;;
611;SDS011;293;53.888;11.464;2022-07-29T07:55:17;3.47;;;1.63;;
611;SDS011;293;53.888;11.464;2022-07-29T07:57:46;3.07;;;1.77;;
611;SDS011;293;53.888;11.464;2022-07-29T08:00:14;4.83;;;1.60;;
611;SDS011;293;53.888;11.464;2022-07-29T08:02:42;2.10;;;1.47;;
611;SDS011;293;53.888;11.464;2022-07-29T08:05:10;4.37;;;2.27;;
611;SDS011;293;53.888;11.464;2022-07-29T08:07:41;4.03;;;1.67;;
611;SDS011;293;53.888;11.464;2022-07-29T08:10:08;3.03;;;1.43;;
611;SDS011;293;53.888;11.464;2022-07-29T08:12:35;3.20;;;2.00;;
611;SDS011;293;53.888;11.464;2022-07-29T08:15:04;3.23;;;1.80;;
611;SDS011;293;53.888;11.464;2022-07-29T08:17:32;4.97;;;2.90;;
611;SDS011;293;53.888;11.464;2022-07-29T08:19:59;3.83;;;2.67;;
611;SDS011;293;53.888;11.464;2022-07-29T08:22:26;8.50;;;2.90;;
611;SDS011;293;53.888;11.464;2022-07-29T08:24:53;3.10;;;2.20;;
611;SDS011;293;53.888;11.464;2022-07-29T08:27:21;5.03;;;2.20;;
611;SDS011;293;53.888;11.464;2022-07-29T08:29:48;2.80;;;1.50;;
611;SDS011;293;53.888;11.464;2022-07-29T08:32:16;3.83;;;2.03;;
611;SDS011;293;53.888;11.464;2022-07-29T08:34:43;2.47;;;1.70;;
611;SDS011;293;53.888;11.464;2022-07-29T08:37:11;3.20;;;1.90;;
611;SDS011;293;53.888;11.464;2022-07-29T08:39:38;3.30;;;3.00;;
611;SDS011;293;53.888;11.464;2022-07-29T08:42:06;3.13;;;2.27;;
611;SDS011;293;53.888;11.464;2022-07-29T08:44:33;5.90;;;2.90;;
611;SDS011;293;53.888;11.464;2022-07-29T08:47:00;4.53;;;2.20;;
611;SDS011;293;53.888;11.464;2022-07-29T08:49:29;9.20;;;3.00;;
611;SDS011;293;53.888;11.464;2022-07-29T08:51:55;4.83;;;1.97;;
611;SDS011;293;53.888;11.464;2022-07-29T08:54:24;2.80;;;2.50;;
611;SDS011;293;53.888;11.464;2022-07-29T08:56:51;3.27;;;2.80;;
611;SDS011;293;53.888;11.464;2022-07-29T08:59:19;4.90;;;2.23;;
611;SDS011;293;53.888;11.464;2022-07-29T09:01:46;2.17;;;1.80;;
611;SDS011;293;53.888;11.464;2022-07-29T09:04:16;3.20;;;2.07;;
611;SDS011;293;53.888;11.464;2022-07-29T09:06:47;4.27;;;2.60;;
611;SDS011;293;53.888;11.464;2022-07-29T09:09:17;8.20;;;2.50;;
611;SDS011;293;53.888;11.464;2022-07-29T09:11:44;5.63;;;3.13;;
611;SDS011;293;53.888;11.464;2022-07-29T09:14:12;6.93;;;2.60;;
611;SDS011;293;53.888;11.464;2022-07-29T09:16:46;4.30;;;2.03;;
611;SDS011;293;53.888;11.464;2022-07-29T09:19:21;4.93;;;2.53;;
611;SDS011;293;53.888;11.464;2022-07-29T09:21:51;3.20;;;2.20;;
611;SDS011;293;53.888;11.464;2022-07-29T09:24:36;2.83;;;2.03;;
611;SDS011;293;53.888;11.464;2022-07-29T09:27:08;2.60;;;1.90;;
611;SDS011;293;53.888;11.464;2022-07-29T09:29:36;3.10;;;1.73;;
611;SDS011;293;53.888;11.464;2022-07-29T09:32:05;5.60;;;2.53;;
611;SDS011;293;53.888;11.464;2022-07-29T09:34:35;3.80;;;1.73;;
611;SDS011;293;53.888;11.464;2022-07-29T09:37:04;4.70;;;2.30;;
611;SDS011;293;53.888;11.464;2022-07-29T09:39:32;1.93;;;1.73;;
611;SDS011;293;53.888;11.464;2022-07-29T09:42:02;6.00;;;2.20;;
611;SDS011;293;53.888;11.464;2022-07-29T09:44:43;5.17;;;2.40;;
611;SDS011;293;53.888;11.464;2022-07-29T09:47:13;4.10;;;2.33;;
611;SDS011;293;53.888;11.464;2022-07-29T09:49:50;4.37;;;2.37;;
611;SDS011;293;53.888;11.464;2022-07-29T09:52:20;4.03;;;2.70;;
611;SDS011;293;53.888;11.464;2022-07-29T09:54:47;5.50;;;2.60;;
611;SDS011;293;53.888;11.464;2022-07-29T09:57:22;6.93;;;3.17;;
611;SDS011;293;53.888;11.464;2022-07-29T09:59:56;6.53;;;2.40;;
611;SDS011;293;53.888;11.464;2022-07-29T10:02:28;5.23;;;1.97;;
611;SDS011;293;53.888;11.464;2022-07-29T10:04:56;4.67;;;3.17;;
611;SDS011;293;53.888;11.464;2022-07-29T10:07:25;5.93;;;2.27;;
611;SDS011;293;53.888;11.464;2022-07-29T10:09:53;2.17;;;1.60;;
611;SDS011;293;53.888;11.464;2022-07-29T10:12:21;7.43;;;3.00;;
611;SDS011;293;53.888;11.464;2022-07-29T10:14:48;3.10;;;2.07;;
611;SDS011;293;53.888;11.464;2022-07-29T10:17:16;3.60;;;2.03;;
611;SDS011;293;53.888;11.464;2022-07-29T10:19:44;4.10;;;2.37;;
611;SDS011;293;53.888;11.464;2022-07-29T10:22:11;3.80;;;2.20;;
611;SDS011;293;53.888;11.464;2022-07-29T10:24:39;3.23;;;2.10;;
611;SDS011;293;53.888;11.464;2022-07-29T10:27:07;1.80;;;1.70;;
611;SDS011;293;53.888;11.464;2022-07-29T10:29:34;3.30;;;2.47;;
611;SDS011;293;53.888;11.464;2022-07-29T10:32:07;4.20;;;2.07;;
611;SDS011;293;53.888;11.464;2022-07-29T10:35:13;6.10;;;2.27;;
611;SDS011;293;53.888;11.464;2022-07-29T10:37:49;4.30;;;2.63;;
611;SDS011;293;53.888;11.464;2022-07-29T10:40:34;3.20;;;2.17;;
611;SDS011;293;53.888;11.464;2022-07-29T10:43:26;3.43;;;2.30;;
611;SDS011;293;53.888;11.464;2022-07-29T10:45:56;2.97;;;2.20;;
611;SDS011;293;53.888;11.464;2022-07-29T10:48:23;4.90;;;2.23;;
611;SDS011;293;53.888;11.464;2022-07-29T10:50:54;4.80;;;2.53;;
611;SDS011;293;53.888;11.464;2022-07-29T10:53:23;4.50;;;2.23;;
611;SDS011;293;53.888;11.464;2022-07-29T10:56:23;3.10;;;1.90;;
611;SDS011;293;53.888;11.464;2022-07-29T11:01:51;4.23;;;2.97;;
611;SDS011;293;53.888;11.464;2022-07-29T11:07:19;3.07;;;1.90;;
611;SDS011;293;53.888;11.464;2022-07-29T11:10:01;3.03;;;2.07;;
611;SDS011;293;53.888;11.464;2022-07-29T11:12:47;6.57;;;2.10;;
611;SDS011;293;53.888;11.464;2022-07-29T11:15:16;6.30;;;2.73;;
611;SDS011;293;53.888;11.464;2022-07-29T11:20:35;4.23;;;1.90;;
611;SDS011;293;53.888;11.464;2022-07-29T11:23:25;2.13;;;1.60;;
611;SDS011;293;53.888;11.464;2022-07-29T11:28:48;3.40;;;2.30;;
611;SDS011;293;53.888;11.464;2022-07-29T11:31:32;2.63;;;2.10;;
611;SDS011;293;53.888;11.464;2022-07-29T11:34:15;7.63;;;2.20;;
611;SDS011;293;53.888;11.464;2022-07-29T11:42:43;4.77;;;2.20;;
611;SDS011;293;53.888;11.464;2022-07-29T11:45:13;3.60;;;1.77;;
611;SDS011;293;53.888;11.464;2022-07-29T11:47:46;9.57;;;2.07;;
611;SDS011;293;53.888;11.464;2022-07-29T11:50:16;2.93;;;1.60;;
611;SDS011;293;53.888;11.464;2022-07-29T11:52:52;2.40;;;2.20;;
611;SDS011;293;53.888;11.464;2022-07-29T11:55:20;3.63;;;2.10;;
611;SDS011;293;53.888;11.464;2022-07-29T11:57:49;2.47;;;2.23;;
611;SDS011;293;53.888;11.464;2022-07-29T12:00:26;4.63;;;1.70;;
611;SDS011;293;53.888;11.464;2022-07-29T12:02:55;6.43;;;2.33;;
611;SDS011;293;53.888;11.464;2022-07-29T12:05:30;7.87;;;2.03;;
611;SDS011;293;53.888;11.464;2022-07-29T12:08:03;1.90;;;1.80;;
611;SDS011;293;53.888;11.464;2022-07-29T12:10:31;5.43;;;2.67;;
611;SDS011;293;53.888;11.464;2022-07-29T12:12:58;3.13;;;1.97;;
611;SDS011;293;53.888;11.464;2022-07-29T12:15:26;3.00;;;1.90;;
611;SDS011;293;53.888;11.464;2022-07-29T12:17:53;8.47;;;2.27;;
611;SDS011;293;53.888;11.464;2022-07-29T12:20:24;2.20;;;2.07;;
611;SDS011;293;53.888;11.464;2022-07-29T12:22:52;3.50;;;1.87;;
611;SDS011;293;53.888;11.464;2022-07-29T12:25:20;5.23;;;2.83;;
611;SDS011;293;53.888;11.464;2022-07-29T12:27:47;3.60;;;2.00;;
611;SDS011;293;53.888;11.464;2022-07-29T12:30:33;4.13;;;2.30;;
611;SDS011;293;53.888;11.464;2022-07-29T12:33:10;2.67;;;1.43;;
611;SDS011;293;53.888;11.464;2022-07-29T12:35:39;3.40;;;1.80;;
611;SDS011;293;53.888;11.464;2022-07-29T12:38:09;7.47;;;2.33;;
611;SDS011;293;53.888;11.464;2022-07-29T12:40:37;5.93;;;2.30;;
611;SDS011;293;53.888;11.464;2022-07-29T12:43:05;4.63;;;1.67;;
611;SDS011;293;53.888;11.464;2022-07-29T12:45:36;6.33;;;2.27;;
611;SDS011;293;53.888;11.464;2022-07-29T12:48:05;3.50;;;1.80;;
611;SDS011;293;53.888;11.464;2022-07-29T12:50:34;4.47;;;1.57;;
611;SDS011;293;53.888;11.464;2022-07-29T12:53:08;3.87;;;1.70;;
611;SDS011;293;53.888;11.464;2022-07-29T12:55:40;3.20;;;2.37;;
611;SDS011;293;53.888;11.464;2022-07-29T12:58:08;3.70;;;2.00;;
611;SDS011;293;53.888;11.464;2022-07-29T13:00:35;7.00;;;2.50;;
611;SDS011;293;53.888;11.464;2022-07-29T13:03:02;3.80;;;2.07;;
611;SDS011;293;53.888;11.464;2022-07-29T13:05:40;5.93;;;1.90;;
611;SDS011;293;53.888;11.464;2022-07-29T13:08:14;2.67;;;2.07;;
611;SDS011;293;53.888;11.464;2022-07-29T13:10:43;3.60;;;1.80;;
611;SDS011;293;53.888;11.464;2022-07-29T13:13:11;9.13;;;2.33;;
611;SDS011;293;53.888;11.464;2022-07-29T13:15:40;5.67;;;2.57;;
611;SDS011;293;53.888;11.464;2022-07-29T13:20:55;2.50;;;1.87;;
611;SDS011;293;53.888;11.464;2022-07-29T13:23:22;2.73;;;2.07;;
611;SDS011;293;53.888;11.464;2022-07-29T13:25:49;3.90;;;2.00;;
611;SDS011;293;53.888;11.464;2022-07-29T13:28:16;3.80;;;1.67;;
611;SDS011;293;53.888;11.464;2022-07-29T13:30:43;4.10;;;2.20;;
611;SDS011;293;53.888;11.464;2022-07-29T13:33:10;4.03;;;2.80;;
611;SDS011;293;53.888;11.464;2022-07-29T13:35:37;5.57;;;2.30;;
611;SDS011;293;53.888;11.464;2022-07-29T13:38:05;3.13;;;1.63;;
611;SDS011;293;53.888;11.464;2022-07-29T13:40:32;4.17;;;2.00;;
611;SDS011;293;53.888;11.464;2022-07-29T13:43:00;2.50;;;2.10;;
611;SDS011;293;53.888;11.464;2022-07-29T13:45:27;3.57;;;2.40;;
611;SDS011;293;53.888;11.464;2022-07-29T13:47:54;4.33;;;1.97;;
611;SDS011;293;53.888;11.464;2022-07-29T13:50:20;5.20;;;1.90;;
611;SDS011;293;53.888;11.464;2022-07-29T13:52:47;6.53;;;2.23;;
611;SDS011;293;53.888;11.464;2022-07-29T13:55:17;4.90;;;1.50;;
611;SDS011;293;53.888;11.464;2022-07-29T13:57:44;4.70;;;2.20;;
611;SDS011;293;53.888;11.464;2022-07-29T14:00:11;3.27;;;2.27;;
611;SDS011;293;53.888;11.464;2022-07-29T14:02:40;8.73;;;1.90;;
611;SDS011;293;53.888;11.464;2022-07-29T14:05:07;3.40;;;1.90;;
611;SDS011;293;53.888;11.464;2022-07-29T14:07:35;3.20;;;2.10;;
611;SDS011;293;53.888;11.464;2022-07-29T14:10:02;5.97;;;2.30;;
611;SDS011;293;53.888;11.464;2022-07-29T14:12:31;8.20;;;2.10;;
611;SDS011;293;53.888;11.464;2022-07-29T14:14:57;3.20;;;1.37;;
611;SDS011;293;53.888;11.464;2022-07-29T14:17:24;4.00;;;1.93;;
611;SDS011;293;53.888;11.464;2022-07-29T14:19:51;2.00;;;1.80;;
611;SDS011;293;53.888;11.464;2022-07-29T14:22:18;5.70;;;2.07;;
611;SDS011;293;53.888;11.464;2022-07-29T14:24:45;3.87;;;2.10;;
611;SDS011;293;53.888;11.464;2022-07-29T14:27:12;4.20;;;1.80;;
611;SDS011;293;53.888;11.464;2022-07-29T14:29:40;3.73;;;1.90;;
611;SDS011;293;53.888;11.464;2022-07-29T14:32:07;1.73;;;1.60;;
611;SDS011;293;53.888;11.464;2022-07-29T14:34:36;3.20;;;1.80;;
611;SDS011;293;53.888;11.464;2022-07-29T14:37:03;5.03;;;1.80;;
611;SDS011;293;53.888;11.464;2022-07-29T14:39:31;5.77;;;2.50;;
611;SDS011;293;53.888;11.464;2022-07-29T14:41:59;3.50;;;1.63;;
611;SDS011;293;53.888;11.464;2022-07-29T14:44:26;3.80;;;1.93;;
611;SDS011;293;53.888;11.464;2022-07-29T14:46:57;3.80;;;1.53;;
611;SDS011;293;53.888;11.464;2022-07-29T14:49:25;3.07;;;2.37;;
611;SDS011;293;53.888;11.464;2022-07-29T14:51:52;6.63;;;1.50;;
611;SDS011;293;53.888;11.464;2022-07-29T14:54:19;1.97;;;1.77;;
611;SDS011;293;53.888;11.464;2022-07-29T14:56:46;6.30;;;2.00;;
611;SDS011;293;53.888;11.464;2022-07-29T14:59:14;2.60;;;2.33;;
611;SDS011;293;53.888;11.464;2022-07-29T15:01:41;3.40;;;1.53;;
611;SDS011;293;53.888;11.464;2022-07-29T15:04:09;5.07;;;1.70;;
611;SDS011;293;53.888;11.464;2022-07-29T15:06:36;4.93;;;1.70;;
611;SDS011;293;53.888;11.464;2022-07-29T15:09:03;4.40;;;1.50;;
611;SDS011;293;53.888;11.464;2022-07-29T15:11:30;5.07;;;1.80;;
611;SDS011;293;53.888;11.464;2022-07-29T15:13:56;3.30;;;1.43;;
611;SDS011;293;53.888;11.464;2022-07-29T15:16:23;4.37;;;1.80;;
611;SDS011;293;53.888;11.464;2022-07-29T15:18:50;3.00;;;1.50;;
611;SDS011;293;53.888;11.464;2022-07-29T15:21:18;3.40;;;1.63;;
611;SDS011;293;53.888;11.464;2022-07-29T15:23:45;4.90;;;2.20;;
611;SDS011;293;53.888;11.464;2022-07-29T15:26:12;6.23;;;2.07;;
611;SDS011;293;53.888;11.464;2022-07-29T15:28:39;2.37;;;1.80;;
611;SDS011;293;53.888;11.464;2022-07-29T15:31:06;2.77;;;1.67;;
611;SDS011;293;53.888;11.464;2022-07-29T15:33:34;9.00;;;1.93;;
611;SDS011;293;53.888;11.464;2022-07-29T15:36:00;4.10;;;1.70;;
611;SDS011;293;53.888;11.464;2022-07-29T15:38:30;2.40;;;2.23;;
611;SDS011;293;53.888;11.464;2022-07-29T15:40:57;2.47;;;2.20;;
611;SDS011;293;53.888;11.464;2022-07-29T15:43:25;6.43;;;1.70;;
611;SDS011;293;53.888;11.464;2022-07-29T15:45:52;3.00;;;1.67;;
611;SDS011;293;53.888;11.464;2022-07-29T15:48:37;1.50;;;1.20;;
611;SDS011;293;53.888;11.464;2022-07-29T15:51:04;2.37;;;1.60;;
611;SDS011;293;53.888;11.464;2022-07-29T15:53:32;3.37;;;1.90;;
611;SDS011;293;53.888;11.464;2022-07-29T15:55:59;2.70;;;1.70;;
611;SDS011;293;53.888;11.464;2022-07-29T15:58:26;3.23;;;1.63;;
611;SDS011;293;53.888;11.464;2022-07-29T16:00:53;3.40;;;1.70;;
611;SDS011;293;53.888;11.464;2022-07-29T16:03:20;1.83;;;1.70;;
611;SDS011;293;53.888;11.464;2022-07-29T16:05:47;3.30;;;1.77;;